This is the latest recevied weather packets stored in our database for station/object PU5BHV. If no packets are shown the sender has not sent any weather packets the latest 1 day(s).
| Time | Temp. | Humidity | Pressure | Rain* | Wind** | Luminosity | Snow |
|---|---|---|---|---|---|---|---|
| 1778117054 | 22.78° C | 98% | 1016.7 hPa | 0 mm | - | 0 W/m² | - |
| 1778116448 | 22.78° C | 98% | 1016.9 hPa | 0 mm | - | 0 W/m² | - |
| 1778115843 | 22.78° C | 98% | 1016.8 hPa | 0 mm | - | 0 W/m² | - |
| 1778115541 | 22.78° C | 98% | 1016.9 hPa | 0 mm | - | 0 W/m² | - |
| 1778115237 | 22.78° C | 98% | 1016.9 hPa | 0 mm | - | 0 W/m² | - |
| 1778114934 | 22.78° C | 98% | 1016.7 hPa | 0 mm | - | 0 W/m² | - |
| 1778114631 | 22.78° C | 98% | 1017 hPa | 0 mm | - | 0 W/m² | - |
| 1778113719 | 22.78° C | 99% | 1017.2 hPa | 0 mm | - | 0 W/m² | - |
| 1778113415 | 22.78° C | 99% | 1017.1 hPa | 0 mm | - | 0 W/m² | - |
| 1778112809 | 22.22° C | 99% | 1016.9 hPa | 0 mm | - | 0 W/m² | - |
| 1778111898 | 22.22° C | 99% | 1017.1 hPa | 0 mm | - | 0 W/m² | - |
| 1778111291 | 22.22° C | 99% | 1017.3 hPa | 0 mm | - | 0 W/m² | - |
| 1778110079 | 22.22° C | 99% | 1017.1 hPa | 0 mm | - | 0 W/m² | - |
| 1778109170 | 22.78° C | 98% | 1017 hPa | 0 mm | - | 0 W/m² | - |
| 1778108866 | 22.78° C | 98% | 1017.2 hPa | 0 mm | - | 0 W/m² | - |
| 1778108260 | 22.78° C | 98% | 1016.9 hPa | 0 mm | - | 0 W/m² | - |
| 1778107957 | 22.78° C | 97% | 1017 hPa | 0 mm | - | 0 W/m² | - |
| 1778106135 | 22.78° C | 97% | 1016.5 hPa | 0 mm | - | 0 W/m² | - |
| 1778102496 | 23.89° C | 93% | 1016.4 hPa | 0 mm | - | 0 W/m² | - |
| 1778099768 | 25° C | 89% | 1016.1 hPa | 0 mm | - | 2 W/m² | - |
| 1778097948 | 26.67° C | 83% | 1016.1 hPa | 0 mm | - | 24 W/m² | - |
| 1778097645 | 26.67° C | 83% | 1016 hPa | 0 mm | - | 28 W/m² | - |
| 1778097038 | 27.78° C | 80% | 1015.8 hPa | 0 mm | - | 32 W/m² | - |
| 1778096736 | 27.78° C | 78% | 1015.9 hPa | 0 mm | - | 56 W/m² | - |
| 1778096432 | 28.33° C | 79% | 1016 hPa | 0 mm | - | 68 W/m² | - |
* Rain latest hour (hover to see other rain measurements)
** Current wind speed in m/s (hover to see current wind gust speed)